Terminal Aerodrome Forecast
Issued by NWS Brownsville, TX

Home | Current Version | Previous Version | Text Only | Print | Product List | Glossary On
Versions: 1 2 3 4 5 6 7 8 9 10 11 12 13 14
000
FTUS44 KBRO 010105 AAB
TAFMFE
TAF AMD
KMFE 010105Z 0101/0124 08008KT P6SM VCTS SCT050CB OVC150
     FM010300 13004KT P6SM FEW025 BKN250
     FM011100 13005KT P6SM SCT030
     FM011400 15007KT P6SM SCT040=

USA.gov is the U.S. government's official web portal to all federal, state and local government web resources and services.